sensor_id;sensor_type;location;lat;lon;timestamp;P1;durP1;ratioP1;P2;durP2;ratioP2
68192;SDS011;55012;47.562;18.414;2022-12-18T00:01:30;66.18;;;22.70;;
68192;SDS011;55012;47.562;18.414;2022-12-18T00:03:58;55.58;;;19.70;;
68192;SDS011;55012;47.562;18.414;2022-12-18T00:06:26;69.22;;;22.42;;
68192;SDS011;55012;47.562;18.414;2022-12-18T00:08:52;61.13;;;20.13;;
68192;SDS011;55012;47.562;18.414;2022-12-18T00:11:20;58.45;;;18.55;;
68192;SDS011;55012;47.562;18.414;2022-12-18T00:13:48;58.50;;;19.73;;
68192;SDS011;55012;47.562;18.414;2022-12-18T00:16:14;64.15;;;22.10;;
68192;SDS011;55012;47.562;18.414;2022-12-18T00:18:45;62.83;;;21.52;;
68192;SDS011;55012;47.562;18.414;2022-12-18T00:21:11;58.83;;;20.33;;
68192;SDS011;55012;47.562;18.414;2022-12-18T00:23:38;65.80;;;21.85;;
68192;SDS011;55012;47.562;18.414;2022-12-18T00:26:06;59.25;;;20.42;;
68192;SDS011;55012;47.562;18.414;2022-12-18T00:28:34;65.40;;;21.85;;
68192;SDS011;55012;47.562;18.414;2022-12-18T00:31:05;64.05;;;22.27;;
68192;SDS011;55012;47.562;18.414;2022-12-18T00:33:33;76.15;;;23.83;;
68192;SDS011;55012;47.562;18.414;2022-12-18T00:36:21;62.90;;;21.38;;
68192;SDS011;55012;47.562;18.414;2022-12-18T00:38:46;60.17;;;21.05;;
68192;SDS011;55012;47.562;18.414;2022-12-18T00:41:13;65.15;;;23.17;;
68192;SDS011;55012;47.562;18.414;2022-12-18T00:43:59;57.65;;;19.15;;
68192;SDS011;55012;47.562;18.414;2022-12-18T00:46:25;68.07;;;22.48;;
68192;SDS011;55012;47.562;18.414;2022-12-18T00:48:51;63.15;;;21.48;;
68192;SDS011;55012;47.562;18.414;2022-12-18T00:51:16;62.08;;;20.95;;
68192;SDS011;55012;47.562;18.414;2022-12-18T00:53:42;64.85;;;22.55;;
68192;SDS011;55012;47.562;18.414;2022-12-18T00:56:07;60.72;;;21.63;;
68192;SDS011;55012;47.562;18.414;2022-12-18T00:58:33;61.83;;;21.13;;
68192;SDS011;55012;47.562;18.414;2022-12-18T01:00:58;56.83;;;20.75;;
68192;SDS011;55012;47.562;18.414;2022-12-18T01:03:23;65.20;;;21.17;;
68192;SDS011;55012;47.562;18.414;2022-12-18T01:05:49;58.28;;;20.17;;
68192;SDS011;55012;47.562;18.414;2022-12-18T01:08:14;64.68;;;21.98;;
68192;SDS011;55012;47.562;18.414;2022-12-18T01:10:40;60.63;;;22.17;;
68192;SDS011;55012;47.562;18.414;2022-12-18T01:13:06;68.13;;;23.02;;
68192;SDS011;55012;47.562;18.414;2022-12-18T01:15:31;61.05;;;21.27;;
68192;SDS011;55012;47.562;18.414;2022-12-18T01:17:57;58.63;;;19.73;;
68192;SDS011;55012;47.562;18.414;2022-12-18T01:20:22;59.03;;;20.70;;
68192;SDS011;55012;47.562;18.414;2022-12-18T01:22:48;62.72;;;19.85;;
68192;SDS011;55012;47.562;18.414;2022-12-18T01:25:13;58.75;;;20.50;;
68192;SDS011;55012;47.562;18.414;2022-12-18T01:27:38;64.45;;;22.02;;
68192;SDS011;55012;47.562;18.414;2022-12-18T01:30:04;60.72;;;21.50;;
68192;SDS011;55012;47.562;18.414;2022-12-18T01:32:30;62.78;;;22.60;;
68192;SDS011;55012;47.562;18.414;2022-12-18T01:34:56;59.78;;;20.50;;
68192;SDS011;55012;47.562;18.414;2022-12-18T01:37:22;56.85;;;20.85;;
68192;SDS011;55012;47.562;18.414;2022-12-18T01:39:47;60.55;;;20.27;;
68192;SDS011;55012;47.562;18.414;2022-12-18T01:42:14;63.60;;;22.00;;
68192;SDS011;55012;47.562;18.414;2022-12-18T01:49:52;60.65;;;21.15;;
68192;SDS011;55012;47.562;18.414;2022-12-18T01:52:18;59.25;;;20.30;;
68192;SDS011;55012;47.562;18.414;2022-12-18T01:54:46;62.20;;;20.92;;
68192;SDS011;55012;47.562;18.414;2022-12-18T01:57:12;60.63;;;21.10;;
68192;SDS011;55012;47.562;18.414;2022-12-18T01:59:38;58.03;;;19.92;;
68192;SDS011;55012;47.562;18.414;2022-12-18T02:02:07;65.03;;;21.52;;
68192;SDS011;55012;47.562;18.414;2022-12-18T02:04:33;54.35;;;18.75;;
68192;SDS011;55012;47.562;18.414;2022-12-18T02:07:16;59.53;;;19.95;;
68192;SDS011;55012;47.562;18.414;2022-12-18T02:09:50;62.40;;;20.70;;
68192;SDS011;55012;47.562;18.414;2022-12-18T02:12:21;50.88;;;17.25;;
68192;SDS011;55012;47.562;18.414;2022-12-18T02:14:54;66.22;;;22.48;;
68192;SDS011;55012;47.562;18.414;2022-12-18T02:17:38;61.45;;;21.80;;
68192;SDS011;55012;47.562;18.414;2022-12-18T02:26:30;58.15;;;19.73;;
68192;SDS011;55012;47.562;18.414;2022-12-18T02:29:08;63.75;;;20.25;;
68192;SDS011;55012;47.562;18.414;2022-12-18T02:31:45;57.78;;;19.30;;
68192;SDS011;55012;47.562;18.414;2022-12-18T02:34:16;58.08;;;20.23;;
68192;SDS011;55012;47.562;18.414;2022-12-18T02:36:44;45.15;;;16.13;;
68192;SDS011;55012;47.562;18.414;2022-12-18T02:39:12;63.28;;;20.80;;
68192;SDS011;55012;47.562;18.414;2022-12-18T02:41:39;52.17;;;18.85;;
68192;SDS011;55012;47.562;18.414;2022-12-18T02:44:10;57.30;;;18.73;;
68192;SDS011;55012;47.562;18.414;2022-12-18T02:46:40;60.40;;;20.73;;
68192;SDS011;55012;47.562;18.414;2022-12-18T02:51:48;65.53;;;22.05;;
68192;SDS011;55012;47.562;18.414;2022-12-18T02:54:28;65.63;;;21.42;;
68192;SDS011;55012;47.562;18.414;2022-12-18T02:56:55;64.05;;;20.67;;
68192;SDS011;55012;47.562;18.414;2022-12-18T02:59:38;70.15;;;22.67;;
68192;SDS011;55012;47.562;18.414;2022-12-18T03:04:51;69.45;;;21.20;;
68192;SDS011;55012;47.562;18.414;2022-12-18T03:07:40;55.17;;;18.70;;
68192;SDS011;55012;47.562;18.414;2022-12-18T03:10:13;69.85;;;22.30;;
68192;SDS011;55012;47.562;18.414;2022-12-18T03:12:47;69.13;;;21.58;;
68192;SDS011;55012;47.562;18.414;2022-12-18T03:15:25;58.80;;;20.52;;
68192;SDS011;55012;47.562;18.414;2022-12-18T03:17:57;66.50;;;21.48;;
68192;SDS011;55012;47.562;18.414;2022-12-18T03:20:35;62.92;;;19.88;;
68192;SDS011;55012;47.562;18.414;2022-12-18T03:23:07;64.85;;;21.17;;
68192;SDS011;55012;47.562;18.414;2022-12-18T03:25:37;66.35;;;22.40;;
68192;SDS011;55012;47.562;18.414;2022-12-18T03:28:05;64.30;;;20.77;;
68192;SDS011;55012;47.562;18.414;2022-12-18T03:30:35;59.05;;;19.27;;
68192;SDS011;55012;47.562;18.414;2022-12-18T03:35:33;67.88;;;21.17;;
68192;SDS011;55012;47.562;18.414;2022-12-18T03:38:02;73.30;;;23.73;;
68192;SDS011;55012;47.562;18.414;2022-12-18T03:40:45;70.18;;;22.27;;
68192;SDS011;55012;47.562;18.414;2022-12-18T03:46:11;64.85;;;20.92;;
68192;SDS011;55012;47.562;18.414;2022-12-18T03:48:49;66.32;;;22.20;;
68192;SDS011;55012;47.562;18.414;2022-12-18T03:51:41;73.28;;;23.13;;
68192;SDS011;55012;47.562;18.414;2022-12-18T03:54:12;69.40;;;21.98;;
68192;SDS011;55012;47.562;18.414;2022-12-18T03:56:40;74.07;;;23.30;;
68192;SDS011;55012;47.562;18.414;2022-12-18T03:59:10;79.60;;;24.00;;
68192;SDS011;55012;47.562;18.414;2022-12-18T04:01:39;79.90;;;24.10;;
68192;SDS011;55012;47.562;18.414;2022-12-18T04:04:08;72.68;;;24.08;;
68192;SDS011;55012;47.562;18.414;2022-12-18T04:06:36;78.85;;;25.17;;
68192;SDS011;55012;47.562;18.414;2022-12-18T04:09:02;80.22;;;24.75;;
68192;SDS011;55012;47.562;18.414;2022-12-18T04:11:27;80.97;;;24.92;;
68192;SDS011;55012;47.562;18.414;2022-12-18T04:13:56;73.88;;;23.50;;
68192;SDS011;55012;47.562;18.414;2022-12-18T04:16:23;75.47;;;23.52;;
68192;SDS011;55012;47.562;18.414;2022-12-18T04:18:49;76.90;;;23.77;;
68192;SDS011;55012;47.562;18.414;2022-12-18T04:21:14;70.88;;;22.60;;
68192;SDS011;55012;47.562;18.414;2022-12-18T04:23:40;76.18;;;25.15;;
68192;SDS011;55012;47.562;18.414;2022-12-18T04:26:05;74.68;;;23.60;;
68192;SDS011;55012;47.562;18.414;2022-12-18T04:28:31;80.10;;;22.80;;
68192;SDS011;55012;47.562;18.414;2022-12-18T04:30:56;73.30;;;24.45;;
68192;SDS011;55012;47.562;18.414;2022-12-18T04:33:22;75.63;;;23.35;;
68192;SDS011;55012;47.562;18.414;2022-12-18T04:35:47;77.72;;;24.40;;
68192;SDS011;55012;47.562;18.414;2022-12-18T04:38:13;75.03;;;24.48;;
68192;SDS011;55012;47.562;18.414;2022-12-18T04:40:38;75.90;;;24.10;;
68192;SDS011;55012;47.562;18.414;2022-12-18T04:43:04;80.35;;;24.98;;
68192;SDS011;55012;47.562;18.414;2022-12-18T04:45:30;83.28;;;23.88;;
68192;SDS011;55012;47.562;18.414;2022-12-18T04:47:59;76.75;;;23.40;;
68192;SDS011;55012;47.562;18.414;2022-12-18T04:50:26;75.97;;;24.15;;
68192;SDS011;55012;47.562;18.414;2022-12-18T04:52:51;72.18;;;24.65;;
68192;SDS011;55012;47.562;18.414;2022-12-18T04:55:17;74.15;;;25.08;;
68192;SDS011;55012;47.562;18.414;2022-12-18T04:57:42;79.15;;;25.08;;
68192;SDS011;55012;47.562;18.414;2022-12-18T05:00:08;81.65;;;25.55;;
68192;SDS011;55012;47.562;18.414;2022-12-18T05:02:34;78.30;;;25.33;;
68192;SDS011;55012;47.562;18.414;2022-12-18T05:05:00;77.47;;;23.35;;
68192;SDS011;55012;47.562;18.414;2022-12-18T05:07:25;73.40;;;24.85;;
68192;SDS011;55012;47.562;18.414;2022-12-18T05:09:50;78.47;;;23.95;;
68192;SDS011;55012;47.562;18.414;2022-12-18T05:12:16;76.82;;;24.55;;
68192;SDS011;55012;47.562;18.414;2022-12-18T05:14:41;77.53;;;25.05;;
68192;SDS011;55012;47.562;18.414;2022-12-18T05:17:07;71.25;;;23.92;;
68192;SDS011;55012;47.562;18.414;2022-12-18T05:19:32;73.93;;;24.33;;
68192;SDS011;55012;47.562;18.414;2022-12-18T05:21:58;78.25;;;23.25;;
68192;SDS011;55012;47.562;18.414;2022-12-18T05:24:23;69.43;;;23.42;;
68192;SDS011;55012;47.562;18.414;2022-12-18T05:26:48;73.93;;;23.92;;
68192;SDS011;55012;47.562;18.414;2022-12-18T05:29:14;76.57;;;24.67;;
68192;SDS011;55012;47.562;18.414;2022-12-18T05:31:40;75.43;;;22.88;;
68192;SDS011;55012;47.562;18.414;2022-12-18T05:34:05;72.78;;;23.02;;
68192;SDS011;55012;47.562;18.414;2022-12-18T05:36:31;71.43;;;22.20;;
68192;SDS011;55012;47.562;18.414;2022-12-18T05:38:56;72.28;;;22.45;;
68192;SDS011;55012;47.562;18.414;2022-12-18T05:41:22;73.47;;;23.05;;
68192;SDS011;55012;47.562;18.414;2022-12-18T05:43:47;73.63;;;23.73;;
68192;SDS011;55012;47.562;18.414;2022-12-18T05:46:14;71.88;;;22.65;;
68192;SDS011;55012;47.562;18.414;2022-12-18T05:48:41;72.32;;;23.40;;
68192;SDS011;55012;47.562;18.414;2022-12-18T05:51:08;74.80;;;23.05;;
68192;SDS011;55012;47.562;18.414;2022-12-18T05:53:41;70.57;;;23.90;;
68192;SDS011;55012;47.562;18.414;2022-12-18T05:56:08;73.22;;;23.33;;
68192;SDS011;55012;47.562;18.414;2022-12-18T05:58:35;71.60;;;23.70;;
68192;SDS011;55012;47.562;18.414;2022-12-18T06:01:15;76.03;;;23.73;;
68192;SDS011;55012;47.562;18.414;2022-12-18T06:03:43;75.32;;;22.63;;
68192;SDS011;55012;47.562;18.414;2022-12-18T06:08:41;69.60;;;21.58;;
68192;SDS011;55012;47.562;18.414;2022-12-18T06:11:07;73.15;;;22.45;;
68192;SDS011;55012;47.562;18.414;2022-12-18T06:13:32;69.72;;;22.83;;
68192;SDS011;55012;47.562;18.414;2022-12-18T06:15:57;72.70;;;23.25;;
68192;SDS011;55012;47.562;18.414;2022-12-18T06:18:23;59.65;;;19.58;;
68192;SDS011;55012;47.562;18.414;2022-12-18T06:20:55;71.93;;;22.55;;
68192;SDS011;55012;47.562;18.414;2022-12-18T06:23:21;67.07;;;22.88;;
68192;SDS011;55012;47.562;18.414;2022-12-18T06:25:46;70.65;;;23.30;;
68192;SDS011;55012;47.562;18.414;2022-12-18T06:28:12;75.05;;;24.13;;
68192;SDS011;55012;47.562;18.414;2022-12-18T06:30:37;72.15;;;22.67;;
68192;SDS011;55012;47.562;18.414;2022-12-18T06:33:03;77.47;;;24.23;;
68192;SDS011;55012;47.562;18.414;2022-12-18T06:35:28;55.47;;;18.58;;
68192;SDS011;55012;47.562;18.414;2022-12-18T06:37:53;69.10;;;23.08;;
68192;SDS011;55012;47.562;18.414;2022-12-18T06:40:19;68.75;;;23.20;;
68192;SDS011;55012;47.562;18.414;2022-12-18T06:42:45;72.85;;;23.40;;
68192;SDS011;55012;47.562;18.414;2022-12-18T06:45:10;70.45;;;23.15;;
68192;SDS011;55012;47.562;18.414;2022-12-18T06:47:36;71.95;;;22.75;;
68192;SDS011;55012;47.562;18.414;2022-12-18T06:50:02;70.57;;;22.90;;
68192;SDS011;55012;47.562;18.414;2022-12-18T06:52:27;69.10;;;22.45;;
68192;SDS011;55012;47.562;18.414;2022-12-18T06:54:53;80.50;;;24.45;;
68192;SDS011;55012;47.562;18.414;2022-12-18T06:57:18;70.38;;;23.33;;
68192;SDS011;55012;47.562;18.414;2022-12-18T06:59:44;72.45;;;23.42;;
68192;SDS011;55012;47.562;18.414;2022-12-18T07:02:12;77.05;;;24.08;;
68192;SDS011;55012;47.562;18.414;2022-12-18T07:04:38;75.03;;;23.92;;
68192;SDS011;55012;47.562;18.414;2022-12-18T07:07:03;74.63;;;23.75;;
68192;SDS011;55012;47.562;18.414;2022-12-18T07:09:28;73.90;;;24.25;;
68192;SDS011;55012;47.562;18.414;2022-12-18T07:11:54;73.72;;;23.77;;
68192;SDS011;55012;47.562;18.414;2022-12-18T07:14:19;77.35;;;26.08;;
68192;SDS011;55012;47.562;18.414;2022-12-18T07:16:45;71.68;;;24.65;;
68192;SDS011;55012;47.562;18.414;2022-12-18T07:19:11;74.88;;;23.77;;
68192;SDS011;55012;47.562;18.414;2022-12-18T07:21:36;73.00;;;24.55;;
68192;SDS011;55012;47.562;18.414;2022-12-18T07:24:01;72.13;;;24.85;;
68192;SDS011;55012;47.562;18.414;2022-12-18T07:26:27;70.88;;;23.95;;
68192;SDS011;55012;47.562;18.414;2022-12-18T07:28:54;73.90;;;22.88;;
68192;SDS011;55012;47.562;18.414;2022-12-18T07:31:22;78.35;;;25.17;;
68192;SDS011;55012;47.562;18.414;2022-12-18T07:33:48;73.38;;;25.23;;
68192;SDS011;55012;47.562;18.414;2022-12-18T07:36:15;77.68;;;24.52;;
68192;SDS011;55012;47.562;18.414;2022-12-18T07:38:40;79.60;;;25.23;;
68192;SDS011;55012;47.562;18.414;2022-12-18T07:41:10;84.25;;;27.55;;
68192;SDS011;55012;47.562;18.414;2022-12-18T07:43:40;81.72;;;26.42;;
68192;SDS011;55012;47.562;18.414;2022-12-18T07:46:07;79.38;;;26.50;;
68192;SDS011;55012;47.562;18.414;2022-12-18T07:48:33;85.07;;;28.50;;
68192;SDS011;55012;47.562;18.414;2022-12-18T07:50:59;86.00;;;27.10;;
68192;SDS011;55012;47.562;18.414;2022-12-18T07:53:26;80.68;;;26.85;;
68192;SDS011;55012;47.562;18.414;2022-12-18T07:55:55;78.18;;;26.90;;
68192;SDS011;55012;47.562;18.414;2022-12-18T07:58:22;80.13;;;27.38;;
68192;SDS011;55012;47.562;18.414;2022-12-18T08:00:47;80.00;;;26.48;;
68192;SDS011;55012;47.562;18.414;2022-12-18T08:03:13;86.65;;;29.15;;
68192;SDS011;55012;47.562;18.414;2022-12-18T08:05:38;84.88;;;28.50;;
68192;SDS011;55012;47.562;18.414;2022-12-18T08:08:04;78.28;;;25.55;;
68192;SDS011;55012;47.562;18.414;2022-12-18T08:10:29;74.65;;;23.80;;
68192;SDS011;55012;47.562;18.414;2022-12-18T08:12:54;77.88;;;26.02;;
68192;SDS011;55012;47.562;18.414;2022-12-18T08:15:20;78.13;;;25.58;;
68192;SDS011;55012;47.562;18.414;2022-12-18T08:17:46;80.55;;;25.83;;
68192;SDS011;55012;47.562;18.414;2022-12-18T08:20:11;77.38;;;25.30;;
68192;SDS011;55012;47.562;18.414;2022-12-18T08:22:38;70.20;;;23.33;;
68192;SDS011;55012;47.562;18.414;2022-12-18T08:25:04;72.15;;;24.58;;
68192;SDS011;55012;47.562;18.414;2022-12-18T08:27:30;77.18;;;25.95;;
68192;SDS011;55012;47.562;18.414;2022-12-18T08:29:56;80.03;;;26.20;;
68192;SDS011;55012;47.562;18.414;2022-12-18T08:32:22;75.53;;;25.42;;
68192;SDS011;55012;47.562;18.414;2022-12-18T08:34:47;70.38;;;22.60;;
68192;SDS011;55012;47.562;18.414;2022-12-18T08:37:13;74.15;;;22.70;;
68192;SDS011;55012;47.562;18.414;2022-12-18T08:39:38;83.00;;;26.90;;
68192;SDS011;55012;47.562;18.414;2022-12-18T08:42:03;75.25;;;25.98;;
68192;SDS011;55012;47.562;18.414;2022-12-18T08:44:48;80.00;;;24.67;;
68192;SDS011;55012;47.562;18.414;2022-12-18T08:47:26;77.28;;;26.23;;
68192;SDS011;55012;47.562;18.414;2022-12-18T08:49:52;66.90;;;22.15;;
68192;SDS011;55012;47.562;18.414;2022-12-18T08:52:18;66.68;;;23.13;;
68192;SDS011;55012;47.562;18.414;2022-12-18T08:54:43;81.93;;;25.35;;
68192;SDS011;55012;47.562;18.414;2022-12-18T08:57:09;71.55;;;23.55;;
68192;SDS011;55012;47.562;18.414;2022-12-18T08:59:34;85.70;;;27.92;;
68192;SDS011;55012;47.562;18.414;2022-12-18T09:01:59;75.10;;;24.83;;
68192;SDS011;55012;47.562;18.414;2022-12-18T09:04:25;78.63;;;25.48;;
68192;SDS011;55012;47.562;18.414;2022-12-18T09:06:50;73.15;;;23.92;;
68192;SDS011;55012;47.562;18.414;2022-12-18T09:09:16;63.20;;;22.45;;
68192;SDS011;55012;47.562;18.414;2022-12-18T09:11:42;64.28;;;20.77;;
68192;SDS011;55012;47.562;18.414;2022-12-18T09:14:08;74.25;;;22.65;;
68192;SDS011;55012;47.562;18.414;2022-12-18T09:16:35;78.05;;;24.90;;
68192;SDS011;55012;47.562;18.414;2022-12-18T09:19:01;78.65;;;24.98;;
68192;SDS011;55012;47.562;18.414;2022-12-18T09:21:29;73.65;;;24.45;;
68192;SDS011;55012;47.562;18.414;2022-12-18T09:23:57;67.95;;;21.50;;
68192;SDS011;55012;47.562;18.414;2022-12-18T09:26:22;61.60;;;21.13;;
68192;SDS011;55012;47.562;18.414;2022-12-18T09:28:49;77.53;;;25.88;;
68192;SDS011;55012;47.562;18.414;2022-12-18T09:31:15;77.18;;;24.65;;
68192;SDS011;55012;47.562;18.414;2022-12-18T09:33:42;68.07;;;21.40;;
68192;SDS011;55012;47.562;18.414;2022-12-18T09:36:09;76.05;;;25.23;;
68192;SDS011;55012;47.562;18.414;2022-12-18T09:38:37;76.60;;;24.05;;
68192;SDS011;55012;47.562;18.414;2022-12-18T09:43:42;64.20;;;21.33;;
68192;SDS011;55012;47.562;18.414;2022-12-18T09:46:16;77.40;;;25.10;;
68192;SDS011;55012;47.562;18.414;2022-12-18T09:48:48;75.03;;;23.90;;
68192;SDS011;55012;47.562;18.414;2022-12-18T09:51:22;75.35;;;26.77;;
68192;SDS011;55012;47.562;18.414;2022-12-18T09:54:35;79.72;;;24.95;;
68192;SDS011;55012;47.562;18.414;2022-12-18T09:56:47;72.75;;;25.23;;
68192;SDS011;55012;47.562;18.414;2022-12-18T09:59:47;71.45;;;23.02;;
68192;SDS011;55012;47.562;18.414;2022-12-18T10:02:22;70.10;;;23.67;;
68192;SDS011;55012;47.562;18.414;2022-12-18T10:05:02;67.72;;;23.33;;
68192;SDS011;55012;47.562;18.414;2022-12-18T10:16:13;65.35;;;20.02;;
68192;SDS011;55012;47.562;18.414;2022-12-18T10:24:40;68.10;;;21.83;;
68192;SDS011;55012;47.562;18.414;2022-12-18T10:27:16;64.60;;;21.50;;
68192;SDS011;55012;47.562;18.414;2022-12-18T10:29:44;66.05;;;20.60;;
68192;SDS011;55012;47.562;18.414;2022-12-18T10:32:15;68.80;;;21.77;;
68192;SDS011;55012;47.562;18.414;2022-12-18T10:34:46;66.45;;;20.58;;
68192;SDS011;55012;47.562;18.414;2022-12-18T10:37:19;69.03;;;22.75;;
68192;SDS011;55012;47.562;18.414;2022-12-18T10:39:46;64.22;;;21.77;;
68192;SDS011;55012;47.562;18.414;2022-12-18T10:42:32;64.82;;;21.55;;
68192;SDS011;55012;47.562;18.414;2022-12-18T10:45:03;65.05;;;21.10;;
68192;SDS011;55012;47.562;18.414;2022-12-18T10:47:35;70.35;;;22.48;;
68192;SDS011;55012;47.562;18.414;2022-12-18T10:50:02;62.63;;;20.27;;
68192;SDS011;55012;47.562;18.414;2022-12-18T10:52:28;67.40;;;21.52;;
68192;SDS011;55012;47.562;18.414;2022-12-18T10:54:57;64.57;;;21.67;;
68192;SDS011;55012;47.562;18.414;2022-12-18T10:59:57;59.72;;;19.58;;
68192;SDS011;55012;47.562;18.414;2022-12-18T11:02:28;73.55;;;25.00;;
68192;SDS011;55012;47.562;18.414;2022-12-18T11:05:01;65.75;;;21.35;;
68192;SDS011;55012;47.562;18.414;2022-12-18T11:07:40;59.22;;;20.92;;
68192;SDS011;55012;47.562;18.414;2022-12-18T11:10:15;64.53;;;21.02;;
68192;SDS011;55012;47.562;18.414;2022-12-18T11:12:42;62.35;;;20.17;;
68192;SDS011;55012;47.562;18.414;2022-12-18T11:15:14;62.63;;;21.17;;
68192;SDS011;55012;47.562;18.414;2022-12-18T11:17:43;58.97;;;20.85;;
68192;SDS011;55012;47.562;18.414;2022-12-18T11:20:31;59.35;;;20.00;;
68192;SDS011;55012;47.562;18.414;2022-12-18T11:23:00;60.17;;;20.00;;
68192;SDS011;55012;47.562;18.414;2022-12-18T11:25:27;60.35;;;20.35;;
68192;SDS011;55012;47.562;18.414;2022-12-18T11:27:54;65.07;;;20.20;;
68192;SDS011;55012;47.562;18.414;2022-12-18T11:30:35;58.25;;;19.73;;
68192;SDS011;55012;47.562;18.414;2022-12-18T11:33:20;57.10;;;18.80;;
68192;SDS011;55012;47.562;18.414;2022-12-18T11:35:53;57.47;;;18.88;;
68192;SDS011;55012;47.562;18.414;2022-12-18T11:38:24;56.90;;;18.90;;
68192;SDS011;55012;47.562;18.414;2022-12-18T11:44:18;54.47;;;18.73;;
68192;SDS011;55012;47.562;18.414;2022-12-18T11:46:51;53.20;;;17.88;;
68192;SDS011;55012;47.562;18.414;2022-12-18T11:49:24;56.75;;;19.45;;
68192;SDS011;55012;47.562;18.414;2022-12-18T11:51:55;55.20;;;19.15;;
68192;SDS011;55012;47.562;18.414;2022-12-18T11:54:27;56.92;;;19.60;;
68192;SDS011;55012;47.562;18.414;2022-12-18T11:56:56;58.72;;;20.98;;
68192;SDS011;55012;47.562;18.414;2022-12-18T12:21:10;59.72;;;19.15;;
68192;SDS011;55012;47.562;18.414;2022-12-18T12:23:46;60.40;;;19.40;;
68192;SDS011;55012;47.562;18.414;2022-12-18T12:29:09;55.17;;;19.38;;
68192;SDS011;55012;47.562;18.414;2022-12-18T12:39:45;51.35;;;17.85;;
68192;SDS011;55012;47.562;18.414;2022-12-18T12:42:28;56.33;;;18.83;;
68192;SDS011;55012;47.562;18.414;2022-12-18T12:45:34;55.35;;;19.13;;
68192;SDS011;55012;47.562;18.414;2022-12-18T12:48:05;60.63;;;19.73;;
68192;SDS011;55012;47.562;18.414;2022-12-18T12:50:41;56.80;;;19.08;;
68192;SDS011;55012;47.562;18.414;2022-12-18T12:53:07;53.38;;;18.65;;
68192;SDS011;55012;47.562;18.414;2022-12-18T12:55:40;57.03;;;19.98;;
68192;SDS011;55012;47.562;18.414;2022-12-18T12:58:14;58.30;;;20.23;;
68192;SDS011;55012;47.562;18.414;2022-12-18T13:01:08;61.97;;;20.35;;
68192;SDS011;55012;47.562;18.414;2022-12-18T13:09:10;59.75;;;20.13;;
68192;SDS011;55012;47.562;18.414;2022-12-18T13:11:36;50.97;;;19.15;;
68192;SDS011;55012;47.562;18.414;2022-12-18T13:14:29;60.15;;;20.05;;
68192;SDS011;55012;47.562;18.414;2022-12-18T13:19:42;56.67;;;19.83;;
68192;SDS011;55012;47.562;18.414;2022-12-18T13:22:21;59.25;;;20.35;;
68192;SDS011;55012;47.562;18.414;2022-12-18T13:24:48;58.17;;;19.30;;
68192;SDS011;55012;47.562;18.414;2022-12-18T13:30:27;61.70;;;19.85;;
68192;SDS011;55012;47.562;18.414;2022-12-18T13:38:23;62.42;;;19.95;;
68192;SDS011;55012;47.562;18.414;2022-12-18T13:48:34;58.45;;;20.42;;
68192;SDS011;55012;47.562;18.414;2022-12-18T13:51:06;62.67;;;21.73;;
68192;SDS011;55012;47.562;18.414;2022-12-18T13:53:35;57.50;;;19.85;;
68192;SDS011;55012;47.562;18.414;2022-12-18T13:56:08;57.60;;;19.85;;
68192;SDS011;55012;47.562;18.414;2022-12-18T13:58:33;57.72;;;19.55;;
68192;SDS011;55012;47.562;18.414;2022-12-18T14:00:59;60.63;;;20.63;;
68192;SDS011;55012;47.562;18.414;2022-12-18T14:03:27;62.53;;;20.98;;
68192;SDS011;55012;47.562;18.414;2022-12-18T14:06:02;53.15;;;19.35;;
68192;SDS011;55012;47.562;18.414;2022-12-18T14:08:34;60.88;;;20.05;;
68192;SDS011;55012;47.562;18.414;2022-12-18T14:11:03;61.47;;;20.30;;
68192;SDS011;55012;47.562;18.414;2022-12-18T14:13:32;62.15;;;20.45;;
68192;SDS011;55012;47.562;18.414;2022-12-18T14:16:06;59.92;;;19.75;;
68192;SDS011;55012;47.562;18.414;2022-12-18T14:21:04;61.70;;;21.75;;
68192;SDS011;55012;47.562;18.414;2022-12-18T14:28:57;69.15;;;23.45;;
68192;SDS011;55012;47.562;18.414;2022-12-18T14:31:29;56.77;;;20.57;;
68192;SDS011;55012;47.562;18.414;2022-12-18T14:33:56;72.18;;;24.55;;
68192;SDS011;55012;47.562;18.414;2022-12-18T14:36:23;73.60;;;23.98;;
68192;SDS011;55012;47.562;18.414;2022-12-18T14:38:51;66.90;;;24.02;;
68192;SDS011;55012;47.562;18.414;2022-12-18T14:41:19;72.20;;;22.75;;
68192;SDS011;55012;47.562;18.414;2022-12-18T14:43:49;70.40;;;23.42;;
68192;SDS011;55012;47.562;18.414;2022-12-18T14:49:00;80.97;;;26.42;;
68192;SDS011;55012;47.562;18.414;2022-12-18T14:51:29;79.15;;;27.02;;
68192;SDS011;55012;47.562;18.414;2022-12-18T14:56:27;94.97;;;30.65;;
68192;SDS011;55012;47.562;18.414;2022-12-18T14:58:59;98.22;;;33.00;;
68192;SDS011;55012;47.562;18.414;2022-12-18T15:03:57;84.28;;;28.20;;
68192;SDS011;55012;47.562;18.414;2022-12-18T15:06:28;89.80;;;28.48;;
68192;SDS011;55012;47.562;18.414;2022-12-18T15:08:55;100.47;;;33.20;;
68192;SDS011;55012;47.562;18.414;2022-12-18T15:13:51;102.80;;;32.95;;
68192;SDS011;55012;47.562;18.414;2022-12-18T15:16:17;105.15;;;36.65;;
68192;SDS011;55012;47.562;18.414;2022-12-18T15:18:43;102.15;;;35.05;;
68192;SDS011;55012;47.562;18.414;2022-12-18T15:21:11;84.18;;;29.08;;
68192;SDS011;55012;47.562;18.414;2022-12-18T15:23:49;75.38;;;25.63;;
68192;SDS011;55012;47.562;18.414;2022-12-18T15:26:17;78.07;;;24.92;;
68192;SDS011;55012;47.562;18.414;2022-12-18T15:28:46;76.28;;;25.50;;
68192;SDS011;55012;47.562;18.414;2022-12-18T15:33:59;78.07;;;25.27;;
68192;SDS011;55012;47.562;18.414;2022-12-18T15:36:24;71.68;;;24.95;;
68192;SDS011;55012;47.562;18.414;2022-12-18T15:38:50;79.78;;;26.83;;
68192;SDS011;55012;47.562;18.414;2022-12-18T15:41:18;77.30;;;26.60;;
68192;SDS011;55012;47.562;18.414;2022-12-18T15:43:51;84.72;;;27.63;;
68192;SDS011;55012;47.562;18.414;2022-12-18T15:46:21;84.95;;;27.88;;
68192;SDS011;55012;47.562;18.414;2022-12-18T15:48:49;91.18;;;30.73;;
68192;SDS011;55012;47.562;18.414;2022-12-18T15:51:20;79.65;;;26.92;;
68192;SDS011;55012;47.562;18.414;2022-12-18T15:53:48;75.20;;;25.98;;
68192;SDS011;55012;47.562;18.414;2022-12-18T15:56:16;74.93;;;24.80;;
68192;SDS011;55012;47.562;18.414;2022-12-18T15:59:01;75.80;;;24.27;;
68192;SDS011;55012;47.562;18.414;2022-12-18T16:01:27;73.78;;;24.45;;
68192;SDS011;55012;47.562;18.414;2022-12-18T16:03:54;83.60;;;27.20;;
68192;SDS011;55012;47.562;18.414;2022-12-18T16:06:21;74.68;;;23.85;;
68192;SDS011;55012;47.562;18.414;2022-12-18T16:08:46;81.28;;;25.10;;
68192;SDS011;55012;47.562;18.414;2022-12-18T16:11:22;80.43;;;26.33;;
68192;SDS011;55012;47.562;18.414;2022-12-18T16:14:06;85.30;;;26.30;;
68192;SDS011;55012;47.562;18.414;2022-12-18T16:16:36;85.28;;;26.23;;
68192;SDS011;55012;47.562;18.414;2022-12-18T16:19:01;91.53;;;29.40;;
68192;SDS011;55012;47.562;18.414;2022-12-18T16:21:26;98.50;;;31.05;;
68192;SDS011;55012;47.562;18.414;2022-12-18T16:23:52;91.15;;;31.33;;
68192;SDS011;55012;47.562;18.414;2022-12-18T16:26:17;98.75;;;33.58;;